Time;durP1;ratioP1;P1;durP2;ratioP2;P2;SDS_P1;SDS_P2;PMS_P1;PMS_P2;Temp;Humidity;BMP_temperature;BMP_pressure;BME280_temperature;BME280_humidity;BME280_pressure;Samples;Min_cycle;Max_cycle;Signal;HPM_P1;HPM_P2
2022/05/02 00:00:30;;;;;;;;;;;;;;;12.61;93.73;99918.59;6186726;23;19907;-88
2022/05/02 00:02:55;;;;;;;;;;;;;;;12.60;93.76;99921.81;6212484;23;19954;-87
2022/05/02 00:05:21;;;;;;;;;;;;;;;12.59;93.97;99926.63;6213247;23;19987;-87
2022/05/02 00:07:46;;;;;;;;;;;;;;;12.56;94.42;99932.31;6213300;23;19919;-88
2022/05/02 00:10:12;;;;;;;;;;;;;;;12.54;95.56;99929.19;6186621;23;20297;-88
2022/05/02 00:12:38;;;;;;;;;;;;;;;12.53;95.56;99922.88;6186895;23;19918;-88
2022/05/02 00:15:04;;;;;;;;;;;;;;;12.50;96.70;99920.97;6213190;23;19912;-85
2022/05/02 00:20:14;;;;;;;;;;;;;;;12.39;98.04;99925.38;6186446;23;19963;-85
2022/05/02 00:22:40;;;;;;;;;;;;;;;12.36;98.31;99923.50;6213356;23;20330;-86
2022/05/02 00:25:05;;;;;;;;;;;;;;;12.33;98.93;99930.75;6185654;23;19926;-85
2022/05/02 00:27:31;;;;;;;;;;;;;;;12.31;98.82;99926.84;6212997;23;19955;-85
2022/05/02 00:29:56;;;;;;;;;;;;;;;12.30;98.72;99930.84;6186521;23;20047;-85
2022/05/02 00:32:22;;;;;;;;;;;;;;;12.31;99.83;99932.41;6212375;23;19923;-87
2022/05/02 00:34:47;;;;;;;;;;;;;;;12.33;100.00;99932.75;6212135;23;20382;-89
2022/05/02 00:37:15;;;;;;;;;;;;;;;12.30;100.00;99925.28;6186170;23;20326;-88
2022/05/02 00:39:40;;;;;;;;;;;;;;;12.29;99.52;99924.53;6212860;23;20290;-88
2022/05/02 00:42:06;;;;;;;;;;;;;;;12.28;99.97;99925.00;6212036;23;19908;-88
2022/05/02 00:44:31;;;;;;;;;;;;;;;12.28;99.57;99922.22;6186291;23;19983;-87
2022/05/02 00:46:56;;;;;;;;;;;;;;;12.28;99.95;99922.22;6186012;23;19916;-88
2022/05/02 00:49:22;;;;;;;;;;;;;;;12.29;99.13;99918.19;6212748;23;20045;-86
2022/05/02 00:51:47;;;;;;;;;;;;;;;12.27;99.65;99915.88;6212610;23;19943;-88
2022/05/02 00:54:12;;;;;;;;;;;;;;;12.27;100.00;99909.53;6212123;23;19912;-85
2022/05/02 00:56:38;;;;;;;;;;;;;;;12.23;100.00;99903.31;6212943;23;19912;-85
2022/05/02 00:59:03;;;;;;;;;;;;;;;12.20;100.00;99909.78;6212135;23;20333;-85
2022/05/02 01:01:28;;;;;;;;;;;;;;;12.18;100.00;99901.88;6185677;23;19915;-84
2022/05/02 01:03:55;;;;;;;;;;;;;;;12.17;100.00;99899.56;6212254;23;19916;-85
2022/05/02 01:09:05;;;;;;;;;;;;;;;12.14;100.00;99906.78;6212341;23;19916;-85
2022/05/02 01:11:30;;;;;;;;;;;;;;;12.17;100.00;99905.13;6185974;23;19911;-84
2022/05/02 01:13:55;;;;;;;;;;;;;;;12.15;100.00;99900.78;6213159;23;19915;-88
2022/05/02 01:16:21;;;;;;;;;;;;;;;12.14;100.00;99896.44;6214923;23;19908;-88
2022/05/02 01:18:47;;;;;;;;;;;;;;;12.11;100.00;99893.78;6212270;23;20003;-87
2022/05/02 01:21:14;;;;;;;;;;;;;;;12.10;100.00;99904.13;6214924;23;20014;-88
2022/05/02 01:23:40;;;;;;;;;;;;;;;12.11;100.00;99899.34;6214301;23;19994;-88
2022/05/02 01:26:05;;;;;;;;;;;;;;;12.10;100.00;99898.56;6213174;23;19951;-88
2022/05/02 01:28:30;;;;;;;;;;;;;;;12.12;100.00;99892.56;6214360;23;20389;-88
2022/05/02 01:30:57;;;;;;;;;;;;;;;12.13;100.00;99897.66;6214303;23;19991;-89
2022/05/02 01:33:22;;;;;;;;;;;;;;;12.13;100.00;99892.09;6163183;23;20227;-84
2022/05/02 01:35:48;;;;;;;;;;;;;;;12.11;100.00;99882.66;6213908;23;19922;-84
2022/05/02 01:38:13;;;;;;;;;;;;;;;12.10;100.00;99881.88;6213234;23;19908;-85
2022/05/02 01:40:39;;;;;;;;;;;;;;;12.09;100.00;99874.78;6213905;23;20270;-85
2022/05/02 01:43:04;;;;;;;;;;;;;;;12.12;100.00;99870.34;6213922;23;20331;-85
2022/05/02 01:45:30;;;;;;;;;;;;;;;12.12;100.00;99881.44;6214189;23;20326;-85
2022/05/02 01:47:55;;;;;;;;;;;;;;;12.14;100.00;99879.75;6213994;23;19934;-88
2022/05/02 01:50:20;;;;;;;;;;;;;;;12.18;99.55;99878.84;6213935;23;19915;-88
2022/05/02 01:52:46;;;;;;;;;;;;;;;12.15;100.00;99878.53;6188072;23;19914;-87
2022/05/02 01:55:11;;;;;;;;;;;;;;;12.14;100.00;99878.97;6213051;23;19942;-89
2022/05/02 01:57:36;;;;;;;;;;;;;;;12.10;100.00;99868.00;6213844;23;19907;-88
2022/05/02 02:00:02;;;;;;;;;;;;;;;12.10;100.00;99873.56;6214139;23;19988;-87
2022/05/02 02:02:40;;;;;;;;;;;;;;;12.08;100.00;99875.25;6212838;23;20313;-88
2022/05/02 02:07:49;;;;;;;;;;;;;;;12.07;100.00;99868.13;6214405;23;19912;-85
2022/05/02 02:10:16;;;;;;;;;;;;;;;12.05;99.18;99868.56;6213642;23;20464;-88
2022/05/02 02:12:41;;;;;;;;;;;;;;;12.05;99.49;99868.56;6214141;23;19947;-87
2022/05/02 02:15:07;;;;;;;;;;;;;;;12.03;100.00;99851.56;6213827;23;20334;-88
2022/05/02 02:17:32;;;;;;;;;;;;;;;11.99;99.85;99875.94;6186772;23;19933;-88
2022/05/02 02:19:58;;;;;;;;;;;;;;;11.97;100.00;99870.03;6214179;23;20401;-87
2022/05/02 02:22:23;;;;;;;;;;;;;;;11.95;100.00;99866.94;6213843;23;20303;-88
2022/05/02 02:24:49;;;;;;;;;;;;;;;11.94;99.77;99870.94;6187864;23;19958;-88
2022/05/02 02:27:14;;;;;;;;;;;;;;;11.94;99.79;99870.94;6185492;23;19951;-85
2022/05/02 02:29:40;;;;;;;;;;;;;;;11.93;99.10;99874.94;6162245;23;19908;-88
2022/05/02 02:32:05;;;;;;;;;;;;;;;11.90;99.81;99869.50;6213262;23;19915;-88
2022/05/02 02:34:31;;;;;;;;;;;;;;;11.88;99.57;99869.97;6161625;23;19912;-88
2022/05/02 02:36:56;;;;;;;;;;;;;;;11.86;99.27;99872.41;6185837;23;19912;-87
2022/05/02 02:39:22;;;;;;;;;;;;;;;11.86;98.93;99866.06;6187061;23;19934;-87
2022/05/02 02:41:47;;;;;;;;;;;;;;;11.83;98.85;99865.00;6187821;23;19912;-88
2022/05/02 02:44:13;;;;;;;;;;;;;;;11.81;98.88;99872.97;6186937;23;19918;-88
2022/05/02 02:46:38;;;;;;;;;;;;;;;11.79;98.61;99881.00;6214208;23;19915;-85
2022/05/02 02:49:04;;;;;;;;;;;;;;;11.77;98.44;99872.31;6186888;23;19915;-84
2022/05/02 02:51:29;;;;;;;;;;;;;;;11.75;98.40;99877.56;6213541;23;20300;-85
2022/05/02 02:53:55;;;;;;;;;;;;;;;11.72;98.28;99880.47;6213584;23;19912;-84
2022/05/02 02:56:20;;;;;;;;;;;;;;;11.68;98.29;99875.00;6186265;23;20448;-84
2022/05/02 02:58:45;;;;;;;;;;;;;;;11.63;98.86;99875.56;6213948;23;19919;-85
2022/05/02 03:01:11;;;;;;;;;;;;;;;11.60;99.04;99880.03;6212671;23;20337;-84
2022/05/02 03:03:36;;;;;;;;;;;;;;;11.55;99.15;99872.25;6187219;23;19919;-84
2022/05/02 03:06:02;;;;;;;;;;;;;;;11.52;99.19;99872.38;6213534;23;19911;-84
2022/05/02 03:08:28;;;;;;;;;;;;;;;11.47;99.05;99876.50;6212978;23;19978;-88
2022/05/02 03:10:55;;;;;;;;;;;;;;;11.43;99.20;99881.38;6212993;23;19942;-87
2022/05/02 03:13:20;;;;;;;;;;;;;;;11.38;99.32;99883.94;6186420;23;20021;-87
2022/05/02 03:15:46;;;;;;;;;;;;;;;11.38;99.53;99881.16;6213301;23;20334;-87
2022/05/02 03:18:12;;;;;;;;;;;;;;;11.35;99.48;99890.38;6161954;23;20298;-87
2022/05/02 03:20:37;;;;;;;;;;;;;;;11.31;100.00;99890.50;6186932;23;19916;-88
2022/05/02 03:23:02;;;;;;;;;;;;;;;11.25;100.00;99886.72;6212733;23;19912;-88
2022/05/02 03:25:28;;;;;;;;;;;;;;;11.19;100.00;99886.53;6213820;23;19979;-87
2022/05/02 03:27:53;;;;;;;;;;;;;;;11.16;100.00;99889.41;6211751;23;19912;-84
2022/05/02 03:30:18;;;;;;;;;;;;;;;11.11;100.00;99887.97;6186248;23;19914;-84
2022/05/02 03:32:44;;;;;;;;;;;;;;;11.10;100.00;99875.31;6213271;23;19916;-84
2022/05/02 03:35:09;;;;;;;;;;;;;;;11.05;100.00;99863.97;6212638;23;20334;-84
2022/05/02 03:37:35;;;;;;;;;;;;;;;11.02;100.00;99873.97;6211674;23;20492;-84
2022/05/02 03:40:00;;;;;;;;;;;;;;;10.99;100.00;99880.41;6212370;23;19916;-84
2022/05/02 03:42:26;;;;;;;;;;;;;;;10.97;100.00;99882.84;6186370;23;19916;-87
2022/05/02 03:44:51;;;;;;;;;;;;;;;10.95;100.00;99885.28;6213711;23;19912;-86
2022/05/02 03:47:19;;;;;;;;;;;;;;;10.94;100.00;99886.50;6212018;23;19911;-87
2022/05/02 03:49:44;;;;;;;;;;;;;;;10.92;100.00;99880.59;6186645;23;19965;-86
2022/05/02 03:52:10;;;;;;;;;;;;;;;10.90;100.00;99860.09;6211373;23;19916;-84
2022/05/02 03:54:35;;;;;;;;;;;;;;;10.92;100.00;99875.06;6213007;23;19991;-85
2022/05/02 03:57:01;;;;;;;;;;;;;;;10.93;100.00;99879.41;6185815;23;19916;-85
2022/05/02 03:59:26;;;;;;;;;;;;;;;10.94;100.00;99878.19;6186089;23;19915;-85
2022/05/02 04:01:52;;;;;;;;;;;;;;;10.96;100.00;99881.28;6212921;23;19912;-86
2022/05/02 04:04:17;;;;;;;;;;;;;;;10.96;100.00;99881.28;6213216;23;20297;-87
2022/05/02 04:06:42;;;;;;;;;;;;;;;10.99;100.00;99879.63;6213100;23;19980;-86
2022/05/02 04:09:08;;;;;;;;;;;;;;;11.01;100.00;99879.94;6211838;23;19912;-86
2022/05/02 04:11:33;;;;;;;;;;;;;;;11.01;100.00;99882.72;6161017;23;19950;-86
2022/05/02 04:13:59;;;;;;;;;;;;;;;11.00;100.00;99881.19;6185964;23;19969;-86
2022/05/02 04:16:24;;;;;;;;;;;;;;;11.00;100.00;99881.94;6211049;23;19919;-86
2022/05/02 04:18:51;;;;;;;;;;;;;;;11.02;100.00;99879.50;6213082;23;19920;-86
2022/05/02 04:21:16;;;;;;;;;;;;;;;11.03;100.00;99869.97;6212023;23;19958;-87
2022/05/02 04:23:41;;;;;;;;;;;;;;;11.13;100.00;99863.28;6212241;23;19915;-83
2022/05/02 04:26:07;;;;;;;;;;;;;;;11.18;100.00;99868.31;6213174;23;19912;-83
2022/05/02 04:28:34;;;;;;;;;;;;;;;11.23;100.00;99864.97;6213412;23;20035;-82
2022/05/02 04:30:59;;;;;;;;;;;;;;;11.27;100.00;99869.63;6213243;23;19908;-83
2022/05/02 04:33:25;;;;;;;;;;;;;;;11.31;100.00;99862.75;6212941;23;20002;-83
2022/05/02 04:35:50;;;;;;;;;;;;;;;11.34;100.00;99864.63;6212146;23;19927;-83
2022/05/02 04:38:16;;;;;;;;;;;;;;;11.41;100.00;99863.59;6184895;23;19912;-83
2022/05/02 04:40:41;;;;;;;;;;;;;;;11.45;100.00;99864.25;6211888;23;19935;-83
2022/05/02 04:43:09;;;;;;;;;;;;;;;11.55;100.00;99860.38;6211629;23;19912;-83
2022/05/02 04:45:34;;;;;;;;;;;;;;;11.64;100.00;99864.03;6212015;23;19919;-83
2022/05/02 04:48:02;;;;;;;;;;;;;;;11.75;99.20;99865.69;6212531;23;19916;-83
2022/05/02 04:50:31;;;;;;;;;;;;;;;11.83;97.97;99865.00;6214516;23;19918;-83
2022/05/02 04:52:56;;;;;;;;;;;;;;;11.97;96.14;99864.47;6214870;23;19911;-83
2022/05/02 04:55:22;;;;;;;;;;;;;;;12.04;96.13;99869.03;6188616;23;19912;-86
2022/05/02 04:57:47;;;;;;;;;;;;;;;12.13;96.49;99860.78;6188248;23;19918;-86
2022/05/02 05:00:16;;;;;;;;;;;;;;;12.24;95.61;99866.72;6163752;23;19912;-86
2022/05/02 05:02:41;;;;;;;;;;;;;;;12.38;95.05;99874.53;6214790;23;20345;-88
2022/05/02 05:05:07;;;;;;;;;;;;;;;12.54;93.73;99876.31;6214851;23;19912;-89
2022/05/02 05:07:32;;;;;;;;;;;;;;;12.64;92.50;99852.91;6188341;23;19912;-88
2022/05/02 05:09:58;;;;;;;;;;;;;;;12.75;91.59;99869.97;6214957;23;19919;-87
2022/05/02 05:12:29;;;;;;;;;;;;;;;12.82;91.10;99866.91;6213196;23;19950;-87
2022/05/02 05:18:07;;;;;;;;;;;;;;;13.02;90.15;99870.09;6213501;23;20353;-87
2022/05/02 05:20:35;;;;;;;;;;;;;;;13.14;88.42;99864.94;6213547;23;19962;-87
2022/05/02 05:23:10;;;;;;;;;;;;;;;13.30;88.61;99873.81;6214150;23;20330;-88
2022/05/02 05:25:47;;;;;;;;;;;;;;;13.50;88.38;99870.59;6214666;23;19938;-88
2022/05/02 05:28:21;;;;;;;;;;;;;;;13.64;85.71;99872.78;6213079;23;20230;-87
2022/05/02 05:30:48;;;;;;;;;;;;;;;13.72;85.66;99870.47;6163655;23;19916;-87
2022/05/02 05:33:23;;;;;;;;;;;;;;;13.80;84.97;99872.50;6214450;23;19916;-87
2022/05/02 05:36:07;;;;;;;;;;;;;;;13.95;84.06;99872.69;6188271;23;20326;-87
2022/05/02 05:38:33;;;;;;;;;;;;;;;14.02;81.57;99872.38;6214677;23;20277;-89
2022/05/02 05:41:09;;;;;;;;;;;;;;;14.06;81.05;99873.00;6214888;23;19912;-87
2022/05/02 05:43:42;;;;;;;;;;;;;;;14.16;80.63;99877.31;6163261;23;19939;-88
2022/05/02 05:46:26;;;;;;;;;;;;;;;14.09;82.06;99879.66;6188284;23;19916;-87
2022/05/02 05:49:10;;;;;;;;;;;;;;;13.97;81.13;99876.56;6214665;23;19920;-87
2022/05/02 05:51:37;;;;;;;;;;;;;;;13.91;82.60;99878.41;6214723;23;19916;-89
2022/05/02 05:54:22;;;;;;;;;;;;;;;13.92;83.37;99877.16;6187936;23;20003;-87
2022/05/02 05:56:56;;;;;;;;;;;;;;;13.98;82.93;99880.91;6213466;23;19918;-87
2022/05/02 05:59:22;;;;;;;;;;;;;;;14.10;83.18;99882.00;6213529;23;19916;-87
2022/05/02 06:01:47;;;;;;;;;;;;;;;14.15;82.33;99877.81;6214516;23;19927;-87
2022/05/02 06:04:14;;;;;;;;;;;;;;;14.21;82.55;99878.72;6213521;23;19939;-87
2022/05/02 06:06:39;;;;;;;;;;;;;;;14.24;80.83;99878.56;6214433;23;19996;-87
2022/05/02 06:09:05;;;;;;;;;;;;;;;14.33;81.34;99875.78;6186206;23;19959;-87
2022/05/02 06:11:30;;;;;;;;;;;;;;;14.44;81.25;99875.31;6211539;23;19915;-88
2022/05/02 06:13:56;;;;;;;;;;;;;;;14.65;79.75;99879.94;6185442;23;19912;-88
2022/05/02 06:19:10;;;;;;;;;;;;;;;15.11;77.04;99877.00;6191264;23;20250;-87
2022/05/02 06:21:35;;;;;;;;;;;;;;;15.38;76.10;99879.66;6187274;23;19919;-86
2022/05/02 06:24:00;;;;;;;;;;;;;;;15.72;74.47;99876.41;6187265;23;19911;-87
2022/05/02 06:26:26;;;;;;;;;;;;;;;16.07;72.89;99885.00;6213968;23;19958;-87
2022/05/02 06:28:54;;;;;;;;;;;;;;;16.11;72.79;99868.03;6214120;23;19919;-87
2022/05/02 06:31:21;;;;;;;;;;;;;;;16.38;71.39;99869.84;6214056;23;19943;-87
2022/05/02 06:33:48;;;;;;;;;;;;;;;16.72;71.11;99869.19;6187576;23;19970;-86
2022/05/02 06:36:34;;;;;;;;;;;;;;;17.00;68.49;99881.63;6187939;23;19907;-87
2022/05/02 06:38:59;;;;;;;;;;;;;;;17.26;67.24;99881.81;6187555;23;19923;-88
2022/05/02 06:41:57;;;;;;;;;;;;;;;17.47;67.91;99877.75;6213923;23;20250;-88
2022/05/02 06:44:29;;;;;;;;;;;;;;;17.74;64.84;99878.69;6146996;23;19919;-88
2022/05/02 06:47:04;;;;;;;;;;;;;;;17.92;60.48;99884.00;6186510;23;20287;-88
2022/05/02 06:49:31;;;;;;;;;;;;;;;18.15;60.55;99883.03;6211168;23;19911;-87
2022/05/02 06:51:58;;;;;;;;;;;;;;;18.17;62.05;99888.91;6185129;23;19919;-87
2022/05/02 06:54:23;;;;;;;;;;;;;;;18.13;52.73;99885.53;6213357;23;19912;-87
2022/05/02 06:57:08;;;;;;;;;;;;;;;18.34;57.31;99894.72;6214065;23;19912;-87
2022/05/02 06:59:39;;;;;;;;;;;;;;;18.53;50.79;99879.88;6213739;23;19912;-87
2022/05/02 07:02:05;;;;;;;;;;;;;;;18.62;47.35;99881.75;6213596;23;19915;-88
2022/05/02 07:04:49;;;;;;;;;;;;;;;18.76;48.44;99885.75;6213767;23;20373;-88
2022/05/02 07:07:31;;;;;;;;;;;;;;;18.79;45.73;99884.75;6213728;23;19916;-87
2022/05/02 07:10:02;;;;;;;;;;;;;;;18.83;46.92;99885.28;6187165;23;20223;-87
2022/05/02 07:12:27;;;;;;;;;;;;;;;19.06;47.71;99887.00;6213559;23;19978;-87
2022/05/02 07:15:08;;;;;;;;;;;;;;;19.28;47.17;99881.56;6187240;23;19916;-87
2022/05/02 07:17:34;;;;;;;;;;;;;;;19.50;44.92;99881.72;6213895;23;19923;-87
2022/05/02 07:20:02;;;;;;;;;;;;;;;19.68;45.27;99879.78;6212319;23;19907;-88
2022/05/02 07:22:44;;;;;;;;;;;;;;;19.85;45.44;99889.09;6213755;23;19918;-87
2022/05/02 07:25:11;;;;;;;;;;;;;;;20.10;45.66;99879.72;6187296;23;19911;-88
2022/05/02 07:27:55;;;;;;;;;;;;;;;20.38;43.41;99874.97;6213492;23;19962;-88
2022/05/02 07:30:21;;;;;;;;;;;;;;;20.63;43.35;99878.09;6213743;23;19947;-88
2022/05/02 07:32:46;;;;;;;;;;;;;;;20.79;43.27;99885.78;6213462;23;19908;-88
2022/05/02 07:35:13;;;;;;;;;;;;;;;20.91;41.70;99881.69;6213418;23;19947;-88
2022/05/02 07:37:38;;;;;;;;;;;;;;;20.78;43.98;99875.81;6210803;23;19915;-87
2022/05/02 07:40:04;;;;;;;;;;;;;;;20.89;41.52;99870.19;6211595;23;19915;-87
2022/05/02 07:42:30;;;;;;;;;;;;;;;20.87;41.55;99872.72;6210926;23;20345;-88
2022/05/02 07:44:56;;;;;;;;;;;;;;;20.93;41.68;99879.16;6211092;23;20314;-88
2022/05/02 07:47:21;;;;;;;;;;;;;;;21.06;43.58;99870.97;6211125;23;19923;-88
2022/05/02 07:49:48;;;;;;;;;;;;;;;21.26;42.76;99873.53;6184837;23;19911;-88
2022/05/02 07:52:15;;;;;;;;;;;;;;;21.35;43.70;99876.06;6210506;23;19919;-87
2022/05/02 07:54:41;;;;;;;;;;;;;;;21.43;41.88;99875.56;6185045;23;20357;-88
2022/05/02 07:57:07;;;;;;;;;;;;;;;21.69;42.08;99870.34;6185066;23;19931;-88
2022/05/02 07:59:39;;;;;;;;;;;;;;;21.97;43.54;99871.06;6159127;23;20295;-88
2022/05/02 08:02:05;;;;;;;;;;;;;;;22.04;41.55;99873.31;6185103;23;19912;-88
2022/05/02 08:04:30;;;;;;;;;;;;;;;21.93;41.79;99879.03;6210988;23;19983;-88
2022/05/02 08:07:11;;;;;;;;;;;;;;;21.77;40.76;99877.00;6209511;23;19918;-88
2022/05/02 08:09:55;;;;;;;;;;;;;;;21.84;41.86;99877.22;6208689;23;19915;-86
2022/05/02 08:12:33;;;;;;;;;;;;;;;22.00;40.81;99878.47;6211204;23;20287;-87
2022/05/02 08:15:01;;;;;;;;;;;;;;;22.11;40.33;99884.09;6211054;23;19919;-88
2022/05/02 08:17:45;;;;;;;;;;;;;;;22.25;41.03;99888.66;6210622;23;19908;-87
2022/05/02 08:20:23;;;;;;;;;;;;;;;22.28;39.21;99879.13;6210991;23;20299;-88
2022/05/02 08:28:34;;;;;;;;;;;;;;;22.29;38.77;99872.19;6209618;23;19955;-88
2022/05/02 08:31:02;;;;;;;;;;;;;;;22.22;38.60;99867.09;6212774;23;19919;-87
2022/05/02 08:33:28;;;;;;;;;;;;;;;22.39;38.35;99880.38;6211547;23;19919;-88
2022/05/02 08:35:58;;;;;;;;;;;;;;;22.46;38.59;99883.41;6213938;23;19912;-88
2022/05/02 08:38:29;;;;;;;;;;;;;;;22.52;38.03;99880.53;6211630;23;19915;-89
2022/05/02 08:40:55;;;;;;;;;;;;;;;22.65;38.12;99886.34;6211881;23;19916;-89
2022/05/02 08:43:23;;;;;;;;;;;;;;;22.54;35.92;99869.47;6211209;23;19970;-88
2022/05/02 08:45:51;;;;;;;;;;;;;;;22.39;37.08;99875.47;6213436;23;19958;-88
2022/05/02 08:48:26;;;;;;;;;;;;;;;22.47;37.21;99881.34;6213028;23;20333;-88
2022/05/02 08:50:54;;;;;;;;;;;;;;;22.55;35.43;99885.16;6213347;23;19916;-88
2022/05/02 08:53:38;;;;;;;;;;;;;;;22.63;34.33;99880.47;6213810;23;19908;-87
2022/05/02 08:56:24;;;;;;;;;;;;;;;22.63;33.65;99883.28;6214934;23;19912;-87
2022/05/02 08:58:54;;;;;;;;;;;;;;;22.86;34.03;99875.44;6153490;23;20002;-87
2022/05/02 09:01:25;;;;;;;;;;;;;;;22.56;33.17;99872.56;6212366;23;19957;-87
2022/05/02 09:03:59;;;;;;;;;;;;;;;22.76;34.08;99872.97;6212238;23;19919;-88
2022/05/02 09:06:24;;;;;;;;;;;;;;;23.07;34.58;99874.50;6211670;23;20310;-87
2022/05/02 09:09:09;;;;;;;;;;;;;;;23.10;33.72;99864.94;6212934;23;20361;-86
2022/05/02 09:11:40;;;;;;;;;;;;;;;23.23;32.53;99867.94;6212831;23;19923;-88
2022/05/02 09:14:24;;;;;;;;;;;;;;;23.50;33.41;99873.84;6210916;23;19912;-87
2022/05/02 09:17:08;;;;;;;;;;;;;;;23.52;31.91;99869.22;6213163;23;20003;-88
2022/05/02 09:19:37;;;;;;;;;;;;;;;23.42;33.31;99870.06;6212645;23;19912;-87
2022/05/02 09:22:08;;;;;;;;;;;;;;;23.45;32.03;99877.53;6213208;23;19947;-87
2022/05/02 09:24:33;;;;;;;;;;;;;;;23.42;32.22;99868.00;6212374;23;19938;-88
2022/05/02 09:27:15;;;;;;;;;;;;;;;23.81;31.35;99875.34;6213388;23;19912;-87
2022/05/02 09:29:59;;;;;;;;;;;;;;;23.83;32.48;99862.16;6212079;23;19916;-88
2022/05/02 09:32:43;;;;;;;;;;;;;;;23.64;32.15;99867.81;6212733;23;19983;-88
2022/05/02 09:35:11;;;;;;;;;;;;;;;23.85;32.15;99870.91;6214665;23;19919;-88
2022/05/02 09:37:40;;;;;;;;;;;;;;;24.07;31.89;99864.97;6188144;23;19916;-88
2022/05/02 09:40:09;;;;;;;;;;;;;;;24.29;31.28;99868.84;6214464;23;20330;-88
2022/05/02 09:42:53;;;;;;;;;;;;;;;23.64;32.26;99864.19;6213816;23;19916;-89
2022/05/02 09:50:52;;;;;;;;;;;;;;;23.04;33.04;99847.28;6214128;23;19919;-87
2022/05/02 09:53:31;;;;;;;;;;;;;;;23.13;32.12;99863.88;6214294;23;19962;-87
2022/05/02 09:58:54;;;;;;;;;;;;;;;23.69;31.15;99852.06;6212326;23;20399;-87
2022/05/02 10:01:27;;;;;;;;;;;;;;;22.84;31.92;99856.19;6212434;23;19915;-87
2022/05/02 10:03:58;;;;;;;;;;;;;;;22.73;32.59;99854.19;6213953;23;19976;-87
2022/05/02 10:06:42;;;;;;;;;;;;;;;22.91;30.09;99849.97;6213935;23;19912;-86
2022/05/02 10:09:14;;;;;;;;;;;;;;;22.92;31.23;99848.66;6214263;23;19920;-86
2022/05/02 10:11:43;;;;;;;;;;;;;;;23.18;31.51;99843.28;6212592;23;19911;-87
2022/05/02 10:14:14;;;;;;;;;;;;;;;23.12;31.39;99839.75;6213673;23;19912;-87
2022/05/02 10:16:40;;;;;;;;;;;;;;;23.18;31.05;99843.28;6213919;23;19912;-86
2022/05/02 10:19:19;;;;;;;;;;;;;;;23.33;30.50;99831.56;6213938;23;19916;-86
2022/05/02 10:21:53;;;;;;;;;;;;;;;23.31;30.64;99841.88;6215170;23;19912;-86
2022/05/02 10:24:29;;;;;;;;;;;;;;;23.42;30.73;99841.75;6186805;23;20357;-87
2022/05/02 10:26:56;;;;;;;;;;;;;;;22.75;31.49;99839.53;6212786;23;19912;-86
2022/05/02 10:29:42;;;;;;;;;;;;;;;22.76;30.63;99841.84;6211273;23;19950;-86
2022/05/02 10:32:20;;;;;;;;;;;;;;;22.30;30.87;99834.16;6211908;23;19912;-87
2022/05/02 10:34:46;;;;;;;;;;;;;;;22.35;30.97;99834.66;6211871;23;19978;-88
2022/05/02 10:37:11;;;;;;;;;;;;;;;22.15;31.02;99816.03;6212605;23;20131;-86
2022/05/02 10:39:38;;;;;;;;;;;;;;;22.52;32.37;99832.50;6210563;23;20245;-88
2022/05/02 10:42:04;;;;;;;;;;;;;;;23.07;33.52;99832.06;6212264;23;19955;-87
2022/05/02 10:44:34;;;;;;;;;;;;;;;23.23;29.56;99836.81;6213305;23;19918;-87
2022/05/02 10:47:02;;;;;;;;;;;;;;;23.30;30.15;99835.44;6212345;23;19918;-87
2022/05/02 10:49:30;;;;;;;;;;;;;;;23.38;29.75;99827.91;6211563;23;20297;-87
2022/05/02 10:52:05;;;;;;;;;;;;;;;23.15;29.93;99827.38;6213799;23;19911;-88
2022/05/02 10:54:30;;;;;;;;;;;;;;;22.53;29.41;99828.34;6186725;23;19918;-88
2022/05/02 10:56:59;;;;;;;;;;;;;;;22.96;30.01;99829.34;6213454;23;19915;-88
2022/05/02 10:59:24;;;;;;;;;;;;;;;23.25;31.41;99825.72;6213934;23;20227;-88
2022/05/02 11:02:10;;;;;;;;;;;;;;;23.90;30.59;99827.56;6212431;23;19912;-87
2022/05/02 11:04:48;;;;;;;;;;;;;;;23.71;27.15;99829.63;6236603;23;20387;-88
2022/05/02 11:07:34;;;;;;;;;;;;;;;23.65;29.13;99823.28;6214030;23;19911;-87
2022/05/02 11:10:09;;;;;;;;;;;;;;;23.91;29.29;99826.28;6213367;23;19978;-88
2022/05/02 11:12:42;;;;;;;;;;;;;;;24.10;30.29;99824.22;6212994;23;19915;-88
2022/05/02 11:15:08;;;;;;;;;;;;;;;24.51;30.14;99817.47;6213552;23;19918;-88
2022/05/02 11:17:33;;;;;;;;;;;;;;;24.40;27.74;99814.81;6211748;23;20348;-87
2022/05/02 11:22:43;;;;;;;;;;;;;;;24.52;29.77;99810.50;6213864;23;19954;-87
2022/05/02 11:25:14;;;;;;;;;;;;;;;24.44;28.93;99818.88;6212265;23;19916;-87
2022/05/02 11:27:52;;;;;;;;;;;;;;;24.06;28.94;99818.09;6209330;23;19918;-87
2022/05/02 11:30:27;;;;;;;;;;;;;;;23.48;29.40;99817.03;6211830;23;19957;-86
2022/05/02 11:33:11;;;;;;;;;;;;;;;23.63;30.20;99803.19;6211641;23;19912;-87
2022/05/02 11:35:36;;;;;;;;;;;;;;;23.90;30.16;99816.25;6208757;23;19943;-87
2022/05/02 11:38:06;;;;;;;;;;;;;;;24.45;30.09;99819.63;6210467;23;19915;-87
2022/05/02 11:40:34;;;;;;;;;;;;;;;24.07;27.87;99813.97;6210942;23;19919;-88
2022/05/02 11:43:00;;;;;;;;;;;;;;;24.23;29.00;99803.72;6210120;23;19908;-87
2022/05/02 11:45:43;;;;;;;;;;;;;;;24.25;29.14;99806.78;6209178;23;19920;-87
2022/05/02 11:48:24;;;;;;;;;;;;;;;24.07;30.16;99813.97;6211768;23;19912;-88
2022/05/02 11:50:49;;;;;;;;;;;;;;;24.03;29.04;99816.34;6207408;23;20388;-87
2022/05/02 11:53:16;;;;;;;;;;;;;;;24.01;30.54;99810.44;6210496;23;19912;-88
2022/05/02 11:55:42;;;;;;;;;;;;;;;23.78;30.38;99809.19;6209264;23;19970;-87
2022/05/02 11:58:19;;;;;;;;;;;;;;;23.57;30.68;99808.19;6184568;23;19918;-86
2022/05/02 12:00:45;;;;;;;;;;;;;;;24.17;31.62;99790.94;6209756;23;20327;-88
2022/05/02 12:03:12;;;;;;;;;;;;;;;24.39;30.70;99791.38;6211463;23;19912;-86
2022/05/02 12:05:40;;;;;;;;;;;;;;;24.11;30.39;99783.25;6208941;23;19933;-87
2022/05/02 12:08:06;;;;;;;;;;;;;;;23.90;30.10;99782.25;6185571;23;19939;-87
2022/05/02 12:10:33;;;;;;;;;;;;;;;23.97;31.00;99778.06;6209026;23;20420;-86
2022/05/02 12:12:58;;;;;;;;;;;;;;;23.81;31.91;99793.22;6210654;23;20238;-86
2022/05/02 12:15:24;;;;;;;;;;;;;;;23.95;30.39;99775.75;6183821;23;20330;-86
2022/05/02 12:17:49;;;;;;;;;;;;;;;24.26;32.14;99782.81;6213062;23;19912;-88
2022/05/02 12:20:29;;;;;;;;;;;;;;;24.46;30.80;99775.81;6211260;23;19912;-87
2022/05/02 12:23:02;;;;;;;;;;;;;;;24.26;30.24;99773.56;6210480;23;20374;-88
2022/05/02 12:25:28;;;;;;;;;;;;;;;24.39;31.29;99776.41;6212806;23;20342;-88
2022/05/02 12:27:54;;;;;;;;;;;;;;;24.13;30.25;99772.16;6185984;23;20246;-88
2022/05/02 12:30:20;;;;;;;;;;;;;;;23.62;30.76;99784.66;6212931;23;20011;-89
2022/05/02 12:32:45;;;;;;;;;;;;;;;23.34;30.34;99770.03;6212938;23;20341;-88
2022/05/02 12:35:11;;;;;;;;;;;;;;;23.63;31.59;99766.38;6209690;23;19912;-88
2022/05/02 12:37:39;;;;;;;;;;;;;;;23.60;31.53;99773.13;6210923;23;19912;-86
2022/05/02 12:40:11;;;;;;;;;;;;;;;23.88;33.47;99762.22;6212730;23;19942;-86
2022/05/02 12:42:39;;;;;;;;;;;;;;;23.37;31.43;99771.84;6212056;23;19911;-86
2022/05/02 12:45:11;;;;;;;;;;;;;;;23.47;33.01;99770.19;6210775;23;19919;-89
2022/05/02 12:47:39;;;;;;;;;;;;;;;23.54;33.91;99766.75;6213098;23;19957;-93
2022/05/02 12:50:06;;;;;;;;;;;;;;;23.30;32.69;99747.72;6211487;23;20219;-93
2022/05/02 12:52:31;;;;;;;;;;;;;;;23.60;33.72;99756.13;6210906;23;19915;-91
2022/05/02 12:54:57;;;;;;;;;;;;;;;23.06;33.52;99754.16;6210830;23;19922;-92
2022/05/02 13:00:33;;;;;;;;;;;;;;;22.82;33.23;99742.81;6211170;23;19995;-93
2022/05/02 13:03:05;;;;;;;;;;;;;;;22.78;32.69;99743.13;6210800;23;19912;-91
2022/05/02 13:05:31;;;;;;;;;;;;;;;22.58;33.32;99748.41;6210629;23;20319;-93
2022/05/02 13:07:57;;;;;;;;;;;;;;;22.67;33.53;99742.44;6211399;23;19907;-92
2022/05/02 13:10:24;;;;;;;;;;;;;;;22.94;34.01;99738.59;6214559;23;19947;-92
2022/05/02 13:13:03;;;;;;;;;;;;;;;22.90;33.52;99740.16;6214197;23;20280;-93
2022/05/02 13:15:29;;;;;;;;;;;;;;;22.38;33.07;99743.19;6214626;23;20017;-93
2022/05/02 13:17:58;;;;;;;;;;;;;;;21.89;33.26;99734.50;6214047;23;19916;-94
2022/05/02 13:20:27;;;;;;;;;;;;;;;21.78;33.13;99728.91;6213763;23;19959;-93
2022/05/02 13:22:57;;;;;;;;;;;;;;;21.87;33.17;99734.25;6188583;23;19912;-94
2022/05/02 13:25:24;;;;;;;;;;;;;;;21.91;33.65;99728.34;6213163;23;19938;-94
2022/05/02 13:27:51;;;;;;;;;;;;;;;21.98;32.49;99722.16;6210544;23;19912;-94